^^

Nearby METAR Reports


EGAC - Belfast Harbour, United Kingdom
Distance from station: W 8mi, 13km
Updated: 21/04/2024 22:50
Clear
Clear
 Wind from S
Wind: S 3 mph, 6 km/h
Temperature: 10°C
Dew Point: 7°C
Humidity: 82%
Barometer: 1032 hPa
Clouds: Clear
Visibility: 6 miles, 10 km
2024/04/21 21:50 EGAC 212150Z AUTO 18003KT 9999 NCD 10/07 Q1032
EGAA - Belfast/Aldergro, United Kingdom
Distance from station: W 22mi, 35km
Updated: 21/04/2024 22:50
Clear
Clear
 Wind from calm
Wind: Calm
Temperature: 6°C
Dew Point: 5°C
Humidity: 93%
Barometer: 1033 hPa
Clouds: Clear
Visibility: 6 miles, 10 km
2024/04/21 21:50 EGAA 212150Z AUTO 00000KT 9999 NCD 06/05 Q1033
 
EGNS - Isle Of Man/Rona, United Kingdom
Distance from station: SE 57mi, 91km
Updated: 21/04/2024 22:50
Few Clouds
Few Clouds
 Wind from NNW
Wind: NNW 3 mph, 6 km/h
Temperature: 7°C
Dew Point: 5°C
Humidity: 87%
Barometer: 1032 hPa
Clouds: Few Clouds
Visibility: 6 miles, 10 km
Cloud details: Few Clouds 1219 m
2024/04/21 21:50 EGNS 212150Z 33003KT 9999 FEW040 07/05 Q1032
EGPK - Prestwick(Civ/Na, United Kingdom
Distance from station: NE 74mi, 119km
Updated: 21/04/2024 22:50
Clear
Clear
 Wind from WSW
Wind: WSW 9 mph, 15 km/h
Temperature: 9°C
Wind Chill: 7°C
Dew Point: 8°C
Humidity: 94%
Barometer: 1032 hPa
Summary: Clear
Visibility: greater than 7 miles, 10 km
2024/04/21 21:50 EGPK 212150Z 24008KT CAVOK 09/08 Q1032
 
EIDW - Dublin Airport, Ireland
Distance from station: SSW 87mi, 141km
Updated: 21/04/2024 23:00
Partly cloudy
Partly cloudy
 Wind from SSE
Wind: SSE 3 mph, 6 km/h
Temperature: 6°C
Dew Point: 4°C
Humidity: 87%
Barometer: 1033 hPa
Clouds: Partly cloudy
Visibility: 6 miles, 10 km
Cloud details: Few Clouds 975 m
Partly cloudy 1463 m
2024/04/21 22:00 EIDW 212200Z 15003KT 9999 FEW032 SCT048 06/04 Q1033 NOSIG
EGPF - Glasgow Airport, United Kingdom
Distance from station: NNE 98mi, 158km
Updated: 21/04/2024 22:50
Clear
Clear
 Wind from WSW
Wind: WSW 5 mph, 7 km/h
Temperature: 9°C
Wind Chill: 8°C
Dew Point: 7°C
Humidity: 87%
Barometer: 1032 hPa
Clouds: Clear
Visibility: 6 miles, 10 km
2024/04/21 21:50 EGPF 212150Z AUTO 25004KT 9999 NCD 09/07 Q1032